Time;durP1;ratioP1;P1;durP2;ratioP2;P2;SDS_P1;SDS_P2;PMS_P1;PMS_P2;Temp;Humidity;BMP_temperature;BMP_pressure;BME280_temperature;BME280_humidity;BME280_pressure;Samples;Min_cycle;Max_cycle;Signal;HPM_P1;HPM_P2
2024/02/19 00:00:50;;;;;;;12.30;11.60;;;8.70;99.90;;;;;;4845211;29;20234;-77
2024/02/19 00:03:17;;;;;;;12.80;12.10;;;8.70;99.90;;;;;;4843690;29;20255;-77
2024/02/19 00:05:45;;;;;;;13.80;13.00;;;8.70;99.90;;;;;;4844498;29;20211;-77
2024/02/19 00:08:11;;;;;;;13.63;12.83;;;8.70;99.90;;;;;;4841878;29;20632;-77
2024/02/19 00:10:38;;;;;;;12.50;11.80;;;8.70;99.90;;;;;;4843562;29;20660;-77
2024/02/19 00:13:05;;;;;;;12.47;11.77;;;8.70;99.90;;;;;;4844888;29;20559;-77
2024/02/19 00:15:32;;;;;;;12.10;11.30;;;8.70;99.90;;;;;;4835943;29;20257;-77
2024/02/19 00:18:00;;;;;;;11.60;11.00;;;8.70;99.90;;;;;;4844849;29;20823;-77
2024/02/19 00:20:28;;;;;;;11.70;11.10;;;8.70;99.90;;;;;;4843456;29;20230;-77
2024/02/19 00:22:55;;;;;;;11.33;10.63;;;8.70;99.90;;;;;;4847903;29;20219;-77
2024/02/19 00:25:21;;;;;;;12.73;12.03;;;8.70;99.90;;;;;;4844781;29;20263;-77
2024/02/19 00:27:49;;;;;;;13.80;12.93;;;8.70;99.90;;;;;;4854804;29;20638;-77
2024/02/19 00:30:16;;;;;;;14.20;13.40;;;8.70;99.90;;;;;;4843062;29;20239;-77
2024/02/19 00:32:43;;;;;;;12.67;11.97;;;8.70;99.90;;;;;;4842709;29;20298;-77
2024/02/19 00:35:11;;;;;;;11.80;11.00;;;8.70;99.90;;;;;;4841392;29;20262;-78
2024/02/19 00:37:38;;;;;;;13.00;12.23;;;8.80;99.90;;;;;;4841943;29;20255;-77
2024/02/19 00:40:06;;;;;;;12.10;11.40;;;8.70;99.90;;;;;;4838121;29;20222;-77
2024/02/19 00:42:33;;;;;;;11.13;10.53;;;8.70;99.90;;;;;;4844337;29;20219;-78
2024/02/19 00:44:59;;;;;;;11.77;11.07;;;8.70;99.90;;;;;;4843129;29;20238;-77
2024/02/19 00:47:26;;;;;;;11.53;10.83;;;8.80;99.90;;;;;;4843579;29;20259;-77
2024/02/19 00:49:53;;;;;;;11.20;10.60;;;8.80;99.90;;;;;;4844293;29;20222;-77
2024/02/19 00:52:22;;;;;;;11.30;10.60;;;8.80;99.90;;;;;;4839845;29;20221;-77
2024/02/19 00:54:48;;;;;;;11.10;10.50;;;8.80;99.90;;;;;;4835219;29;20222;-77
2024/02/19 00:57:15;;;;;;;11.40;10.80;;;8.80;99.90;;;;;;4843346;29;20222;-77
2024/02/19 00:59:42;;;;;;;12.37;11.67;;;8.80;99.90;;;;;;4844171;29;20661;-77
2024/02/19 01:02:09;;;;;;;11.40;10.80;;;8.80;99.90;;;;;;4843927;29;20207;-77
2024/02/19 01:04:36;;;;;;;11.50;10.90;;;8.80;99.90;;;;;;4841846;29;20209;-77
2024/02/19 01:07:03;;;;;;;11.80;11.10;;;8.80;99.90;;;;;;4844572;29;20263;-77
2024/02/19 01:09:31;;;;;;;11.60;11.00;;;8.80;99.90;;;;;;4839555;29;20271;-77
2024/02/19 01:11:58;;;;;;;11.40;10.80;;;8.80;99.90;;;;;;4840731;29;20202;-77
2024/02/19 01:14:24;;;;;;;10.73;10.13;;;8.80;99.90;;;;;;4838426;29;20262;-77
2024/02/19 01:16:51;;;;;;;11.80;11.10;;;8.90;99.90;;;;;;4844008;29;20206;-77
2024/02/19 01:19:18;;;;;;;11.33;10.73;;;8.90;99.90;;;;;;4835366;29;20207;-77
2024/02/19 01:21:46;;;;;;;11.47;10.77;;;8.90;99.90;;;;;;4842701;29;20248;-77
2024/02/19 01:24:13;;;;;;;11.00;10.40;;;8.90;99.90;;;;;;4835132;29;20653;-77
2024/02/19 01:26:41;;;;;;;11.50;10.90;;;8.90;99.90;;;;;;4842195;29;20267;-77
2024/02/19 01:29:08;;;;;;;11.80;11.20;;;8.90;99.90;;;;;;4844196;29;20242;-77
2024/02/19 01:31:34;;;;;;;11.10;10.50;;;8.90;99.90;;;;;;4848577;29;20268;-77
2024/02/19 01:34:04;;;;;;;10.83;10.23;;;8.90;99.90;;;;;;4839720;29;20254;-78
2024/02/19 01:36:31;;;;;;;11.27;10.67;;;8.80;99.90;;;;;;4846558;29;20305;-77
2024/02/19 01:38:57;;;;;;;11.17;10.57;;;8.90;99.90;;;;;;4844874;29;20199;-77
2024/02/19 01:41:24;;;;;;;11.13;10.53;;;8.90;99.90;;;;;;4843159;29;20239;-77
2024/02/19 01:43:53;;;;;;;11.87;11.10;;;8.90;99.90;;;;;;4833780;29;20309;-77
2024/02/19 01:46:20;;;;;;;12.23;11.47;;;8.90;99.90;;;;;;4842075;29;20625;-77
2024/02/19 01:48:47;;;;;;;12.40;11.80;;;8.90;99.90;;;;;;4841807;29;20204;-77
2024/02/19 01:51:16;;;;;;;11.63;11.03;;;8.80;99.90;;;;;;4844129;29;20674;-77
2024/02/19 01:53:43;;;;;;;12.00;11.30;;;8.80;99.90;;;;;;4837738;29;20281;-77
2024/02/19 01:56:10;;;;;;;11.40;10.80;;;8.80;99.90;;;;;;4842122;29;20292;-77
2024/02/19 01:58:38;;;;;;;11.37;10.77;;;8.80;99.90;;;;;;4843539;29;20263;-77
2024/02/19 02:01:06;;;;;;;11.90;11.30;;;8.80;99.90;;;;;;4840667;29;20268;-78
2024/02/19 02:03:36;;;;;;;11.37;10.77;;;8.80;99.90;;;;;;4847547;29;20215;-77
2024/02/19 02:06:03;;;;;;;11.40;10.80;;;8.80;99.90;;;;;;4836090;29;20232;-77
2024/02/19 02:08:30;;;;;;;11.30;10.70;;;8.80;99.90;;;;;;4842474;29;20206;-77
2024/02/19 02:10:57;;;;;;;11.53;10.93;;;8.70;99.90;;;;;;4842192;29;20242;-77
2024/02/19 02:13:24;;;;;;;11.57;10.97;;;8.70;99.90;;;;;;4841767;29;20206;-77
2024/02/19 02:15:50;;;;;;;11.23;10.63;;;8.70;99.90;;;;;;4842981;29;20750;-78
2024/02/19 02:18:19;;;;;;;11.70;11.10;;;8.80;99.90;;;;;;4841698;29;20220;-78
2024/02/19 02:20:46;;;;;;;11.90;11.30;;;8.70;99.90;;;;;;4843110;29;20219;-77
2024/02/19 02:23:14;;;;;;;14.47;13.67;;;8.80;99.90;;;;;;4842236;29;20257;-77
2024/02/19 02:25:41;;;;;;;17.00;16.00;;;8.80;99.90;;;;;;4839491;29;20673;-77
2024/02/19 02:28:10;;;;;;;12.60;11.90;;;8.80;99.90;;;;;;4843448;29;20249;-77
2024/02/19 02:30:36;;;;;;;12.67;11.97;;;8.80;99.90;;;;;;4839795;29;20254;-77
2024/02/19 02:33:04;;;;;;;13.20;12.50;;;8.80;99.90;;;;;;4841857;29;20660;-77
2024/02/19 02:35:30;;;;;;;12.70;11.90;;;8.70;99.90;;;;;;4841060;29;20207;-77
2024/02/19 02:37:59;;;;;;;12.10;11.40;;;8.70;99.90;;;;;;4842488;29;20199;-78
2024/02/19 02:40:26;;;;;;;12.40;11.70;;;8.70;99.90;;;;;;4842078;29;20227;-78
2024/02/19 02:42:53;;;;;;;11.97;11.37;;;8.70;99.90;;;;;;4838227;29;20219;-77
2024/02/19 02:45:21;;;;;;;12.60;11.90;;;8.70;99.90;;;;;;4840821;29;20227;-78
2024/02/19 02:47:48;;;;;;;10.77;10.20;;;8.70;99.90;;;;;;4836811;29;20202;-77
2024/02/19 02:50:14;;;;;;;11.50;10.80;;;8.70;99.90;;;;;;4840930;29;20246;-77
2024/02/19 02:52:41;;;;;;;11.77;10.87;;;8.70;99.90;;;;;;4840909;29;20727;-77
2024/02/19 02:55:08;;;;;;;12.63;11.93;;;8.60;99.90;;;;;;4839982;29;20240;-77
2024/02/19 02:57:35;;;;;;;12.90;12.20;;;8.60;99.90;;;;;;4833733;29;20207;-77
2024/02/19 03:00:02;;;;;;;12.90;12.20;;;8.60;99.90;;;;;;4841605;29;20223;-77
2024/02/19 03:02:32;;;;;;;12.50;11.90;;;8.60;99.90;;;;;;4845194;29;20210;-77
2024/02/19 03:04:59;;;;;;;13.00;12.30;;;8.60;99.90;;;;;;4836378;29;20227;-77
2024/02/19 03:07:26;;;;;;;14.07;13.27;;;8.60;99.90;;;;;;4840530;29;20230;-77
2024/02/19 03:09:53;;;;;;;12.00;11.40;;;8.60;99.90;;;;;;4844785;29;20230;-77
2024/02/19 03:12:20;;;;;;;12.63;11.87;;;8.60;99.90;;;;;;4844787;29;20206;-77
2024/02/19 03:14:47;;;;;;;12.40;11.80;;;8.60;99.90;;;;;;4837822;29;20258;-77
2024/02/19 03:17:14;;;;;;;12.50;11.70;;;8.60;99.90;;;;;;4843120;29;20263;-77
2024/02/19 03:19:43;;;;;;;12.83;12.13;;;8.60;99.90;;;;;;4837256;29;20250;-76
2024/02/19 03:22:10;;;;;;;12.80;12.20;;;8.60;99.90;;;;;;4844559;29;20233;-77
2024/02/19 03:24:37;;;;;;;13.40;12.70;;;8.60;99.90;;;;;;4844536;29;20266;-77
2024/02/19 03:27:04;;;;;;;12.77;12.17;;;8.60;99.90;;;;;;4844719;29;20208;-77
2024/02/19 03:29:37;;;;;;;12.50;11.90;;;8.60;99.90;;;;;;4806564;29;1079874;-77
2024/02/19 03:32:04;;;;;;;12.13;11.53;;;8.60;99.90;;;;;;4841089;29;20302;-77
2024/02/19 03:34:31;;;;;;;12.00;11.40;;;8.60;99.90;;;;;;4843036;29;20682;-77
2024/02/19 03:36:59;;;;;;;12.20;11.57;;;8.60;99.90;;;;;;4841990;29;20203;-77
2024/02/19 03:39:26;;;;;;;12.90;12.20;;;8.60;99.90;;;;;;4842741;29;20266;-77
2024/02/19 03:41:53;;;;;;;12.67;12.07;;;8.60;99.90;;;;;;4825837;29;20652;-76
2024/02/19 03:44:19;;;;;;;12.80;12.10;;;8.60;99.90;;;;;;4824214;29;20219;-77
2024/02/19 03:46:46;;;;;;;13.43;12.73;;;8.60;99.90;;;;;;4823328;29;20212;-77
2024/02/19 03:49:13;;;;;;;13.20;12.50;;;8.60;99.90;;;;;;4823256;29;20297;-78
2024/02/19 03:51:43;;;;;;;11.90;11.30;;;8.60;99.90;;;;;;4822546;29;20219;-75
2024/02/19 03:54:11;;;;;;;12.40;11.70;;;8.60;99.90;;;;;;4828266;29;20203;-75
2024/02/19 03:56:41;;;;;;;12.80;12.20;;;8.60;99.90;;;;;;4822432;29;20199;-76
2024/02/19 03:59:08;;;;;;;12.87;12.17;;;8.60;99.90;;;;;;4819087;29;20199;-76
2024/02/19 04:01:36;;;;;;;13.57;12.77;;;8.60;99.90;;;;;;4862041;23;20265;-75
2024/02/19 04:04:03;;;;;;;12.77;11.90;;;8.60;99.90;;;;;;4842060;29;20219;-75
2024/02/19 04:06:30;;;;;;;12.73;12.07;;;8.60;99.90;;;;;;4842593;29;20211;-75
2024/02/19 04:08:57;;;;;;;12.70;12.10;;;8.60;99.90;;;;;;4836671;29;20268;-75
2024/02/19 04:11:25;;;;;;;12.93;12.23;;;8.60;99.90;;;;;;4841813;29;20226;-76
2024/02/19 04:13:52;;;;;;;12.83;12.20;;;8.60;99.90;;;;;;4834027;29;20683;-75
2024/02/19 04:16:19;;;;;;;12.70;12.10;;;8.60;99.90;;;;;;4839099;29;20213;-75
2024/02/19 04:18:45;;;;;;;12.73;12.03;;;8.60;99.90;;;;;;4838502;29;20226;-76
2024/02/19 04:21:12;;;;;;;13.10;12.40;;;8.60;99.90;;;;;;4839700;29;20223;-75
2024/02/19 04:23:39;;;;;;;12.77;12.17;;;8.70;99.90;;;;;;4835005;29;20643;-76
2024/02/19 04:26:06;;;;;;;13.20;12.40;;;8.70;99.90;;;;;;4841111;29;20564;-77
2024/02/19 04:28:35;;;;;;;13.40;12.70;;;8.70;99.90;;;;;;4839808;29;20721;-76
2024/02/19 04:31:02;;;;;;;13.10;12.40;;;8.70;99.90;;;;;;4841216;29;20720;-76
2024/02/19 04:33:30;;;;;;;13.23;12.50;;;8.70;99.90;;;;;;4835227;29;20268;-76
2024/02/19 04:35:56;;;;;;;13.20;12.50;;;8.70;99.90;;;;;;4837285;29;20266;-75
2024/02/19 04:38:24;;;;;;;13.77;12.93;;;8.70;99.90;;;;;;4836651;29;20293;-76
2024/02/19 04:40:55;;;;;;;13.40;12.70;;;8.70;99.90;;;;;;4835643;29;20810;-76
2024/02/19 04:44:20;;;;;;;13.10;12.40;;;8.70;99.90;;;;;;4837847;29;20211;-77
2024/02/19 04:50:45;;;;;;;13.13;12.43;;;8.70;99.90;;;;;;4833477;29;20241;-77
2024/02/19 04:53:26;;;;;;;13.40;12.70;;;8.70;99.90;;;;;;4817330;29;20212;-76
2024/02/19 04:55:53;;;;;;;13.57;12.87;;;8.70;99.90;;;;;;4836871;29;20221;-76
2024/02/19 04:58:20;;;;;;;15.13;14.33;;;8.70;99.90;;;;;;4833589;29;20211;-76
2024/02/19 05:00:48;;;;;;;14.67;13.87;;;8.70;99.90;;;;;;4835884;29;20636;-76
2024/02/19 05:03:15;;;;;;;14.20;13.40;;;8.70;99.90;;;;;;4841479;29;20198;-76
2024/02/19 05:05:42;;;;;;;13.67;12.97;;;8.70;99.90;;;;;;4837425;29;20210;-76
2024/02/19 05:08:09;;;;;;;14.87;14.07;;;8.60;99.90;;;;;;4836200;29;20269;-76
2024/02/19 05:10:36;;;;;;;14.60;13.90;;;8.60;99.90;;;;;;4839504;29;20233;-76
2024/02/19 05:13:03;;;;;;;15.33;14.53;;;8.60;99.90;;;;;;4837285;29;20230;-76
2024/02/19 05:15:30;;;;;;;14.97;14.27;;;8.60;99.90;;;;;;4838934;29;20266;-76
2024/02/19 05:17:58;;;;;;;17.60;16.63;;;8.60;99.90;;;;;;4839275;29;20248;-76
2024/02/19 05:20:25;;;;;;;13.97;13.27;;;8.60;99.90;;;;;;4832871;29;20227;-76
2024/02/19 05:22:51;;;;;;;14.77;13.97;;;8.60;99.90;;;;;;4838484;29;20236;-76
2024/02/19 05:25:18;;;;;;;14.03;13.33;;;8.60;99.90;;;;;;4836440;29;20231;-76
2024/02/19 05:27:45;;;;;;;14.00;13.20;;;8.60;99.90;;;;;;4840430;29;20201;-76
2024/02/19 05:30:13;;;;;;;14.33;13.63;;;8.50;99.90;;;;;;4836463;29;20234;-76
2024/02/19 05:32:39;;;;;;;14.10;13.30;;;8.50;99.90;;;;;;4840057;29;20293;-76
2024/02/19 05:35:09;;;;;;;13.43;12.70;;;8.40;99.90;;;;;;4839765;29;20202;-76
2024/02/19 05:37:36;;;;;;;13.60;12.90;;;8.40;99.90;;;;;;4833597;29;20222;-76
2024/02/19 05:40:03;;;;;;;13.70;13.00;;;8.40;99.90;;;;;;4840744;29;20218;-76
2024/02/19 05:42:30;;;;;;;13.70;13.00;;;8.40;99.90;;;;;;4832914;29;20261;-75
2024/02/19 05:44:56;;;;;;;13.90;13.10;;;8.40;99.90;;;;;;4840408;29;20833;-76
2024/02/19 05:47:23;;;;;;;14.30;13.50;;;8.30;99.90;;;;;;4833505;29;20570;-75
2024/02/19 05:49:50;;;;;;;14.27;13.47;;;8.30;99.90;;;;;;4832130;29;20206;-76
2024/02/19 05:52:18;;;;;;;13.13;12.43;;;8.40;99.90;;;;;;4837103;29;20221;-76
2024/02/19 05:54:45;;;;;;;13.70;12.97;;;8.40;99.90;;;;;;4839378;29;20206;-77
2024/02/19 05:57:12;;;;;;;14.90;14.20;;;8.40;99.90;;;;;;4837725;29;20259;-76
2024/02/19 05:59:39;;;;;;;13.13;12.43;;;8.40;99.90;;;;;;4836668;29;20647;-76
2024/02/19 06:02:06;;;;;;;13.80;13.10;;;8.40;99.90;;;;;;4840432;29;20622;-76
2024/02/19 06:04:33;;;;;;;14.60;13.80;;;8.40;99.90;;;;;;4831236;29;20310;-76
2024/02/19 06:07:01;;;;;;;14.67;13.87;;;8.30;99.90;;;;;;4838865;29;20269;-76
2024/02/19 06:09:29;;;;;;;15.57;14.77;;;8.30;99.90;;;;;;4840403;29;20199;-76
2024/02/19 06:11:56;;;;;;;14.50;13.70;;;8.30;99.90;;;;;;4832644;29;20222;-76
2024/02/19 06:14:25;;;;;;;14.23;13.53;;;8.30;99.90;;;;;;4837696;29;20198;-76
2024/02/19 06:16:52;;;;;;;13.70;13.00;;;8.30;99.90;;;;;;4834565;29;20199;-76
2024/02/19 06:19:19;;;;;;;14.37;13.57;;;8.30;99.90;;;;;;4834608;29;20207;-76
2024/02/19 06:21:52;;;;;;;15.80;14.90;;;8.30;99.90;;;;;;4836122;29;20222;-76
2024/02/19 06:24:19;;;;;;;14.70;13.90;;;8.30;99.90;;;;;;4838881;29;20231;-77
2024/02/19 06:26:48;;;;;;;13.83;13.07;;;8.20;99.90;;;;;;4840757;29;20217;-77
2024/02/19 06:29:33;;;;;;;13.57;12.87;;;8.20;99.90;;;;;;4858085;29;20210;-76
2024/02/19 06:32:00;;;;;;;14.10;13.30;;;8.20;99.90;;;;;;4864739;29;20262;-77
2024/02/19 06:34:27;;;;;;;14.73;13.93;;;8.10;99.90;;;;;;4863867;29;20218;-77
2024/02/19 06:36:54;;;;;;;13.73;13.03;;;8.10;99.90;;;;;;4868268;29;20194;-77
2024/02/19 06:39:21;;;;;;;15.13;13.90;;;8.00;99.90;;;;;;4867617;29;20619;-77
2024/02/19 06:41:49;;;;;;;14.90;14.00;;;8.00;99.90;;;;;;4848399;29;20770;-77
2024/02/19 06:44:16;;;;;;;15.33;14.23;;;8.00;99.90;;;;;;4839596;29;20218;-77
2024/02/19 06:46:43;;;;;;;15.20;14.10;;;7.90;99.90;;;;;;4840469;29;20210;-77
2024/02/19 06:49:10;;;;;;;14.37;13.57;;;7.90;99.90;;;;;;4842368;29;20627;-77
2024/02/19 06:51:36;;;;;;;14.70;13.63;;;7.90;99.90;;;;;;4849560;29;20245;-77
2024/02/19 06:54:03;;;;;;;14.30;13.40;;;7.90;99.90;;;;;;4837077;29;20199;-77
2024/02/19 06:56:30;;;;;;;14.37;13.47;;;8.00;99.90;;;;;;4837334;29;20221;-77
2024/02/19 06:58:58;;;;;;;14.63;13.73;;;8.00;99.90;;;;;;4836540;29;20298;-77
2024/02/19 07:01:25;;;;;;;14.17;13.37;;;7.90;99.90;;;;;;4838659;29;20726;-77
2024/02/19 07:03:52;;;;;;;15.00;13.90;;;8.00;99.90;;;;;;4842314;29;20202;-77
2024/02/19 07:06:19;;;;;;;14.80;13.80;;;8.00;99.90;;;;;;4839879;29;20255;-77
2024/02/19 07:08:47;;;;;;;14.23;13.40;;;8.00;99.90;;;;;;4842842;29;20211;-77
2024/02/19 07:11:13;;;;;;;14.50;13.70;;;8.00;99.90;;;;;;4839962;29;20554;-77
2024/02/19 07:13:40;;;;;;;14.30;13.40;;;8.10;99.90;;;;;;4839398;29;20206;-77
2024/02/19 07:16:08;;;;;;;14.50;13.63;;;8.10;99.90;;;;;;4842609;29;20671;-77
2024/02/19 07:18:35;;;;;;;15.33;14.30;;;8.10;99.90;;;;;;4836153;29;20203;-77
2024/02/19 07:21:02;;;;;;;15.00;14.00;;;8.20;99.90;;;;;;4840071;29;20226;-76
2024/02/19 07:23:29;;;;;;;15.50;14.50;;;8.20;99.90;;;;;;4843419;29;20263;-77
2024/02/19 07:25:56;;;;;;;14.70;13.80;;;8.20;99.90;;;;;;4842088;29;20250;-77
2024/02/19 07:28:22;;;;;;;16.00;15.00;;;8.30;99.90;;;;;;4834028;29;20879;-77
2024/02/19 07:30:49;;;;;;;14.57;13.33;;;8.30;99.90;;;;;;4841896;29;20226;-77
2024/02/19 07:33:17;;;;;;;14.47;13.57;;;8.30;99.90;;;;;;4839444;29;20226;-77
2024/02/19 07:35:44;;;;;;;16.20;15.20;;;8.40;99.90;;;;;;4843294;29;20195;-77
2024/02/19 07:38:11;;;;;;;14.20;13.30;;;8.40;99.90;;;;;;4838403;29;20636;-77
2024/02/19 07:40:38;;;;;;;14.47;13.47;;;8.40;99.90;;;;;;4839788;29;20287;-77
2024/02/19 07:43:05;;;;;;;16.17;14.97;;;8.50;99.90;;;;;;4843534;29;20207;-77
2024/02/19 07:45:31;;;;;;;13.73;12.93;;;8.40;99.90;;;;;;4841349;29;20235;-77
2024/02/19 07:48:00;;;;;;;15.87;14.80;;;8.50;99.90;;;;;;4842358;29;20203;-77
2024/02/19 07:50:32;;;;;;;14.53;13.47;;;8.50;99.90;;;;;;4840394;29;20227;-77
2024/02/19 07:52:59;;;;;;;15.33;14.43;;;8.50;99.90;;;;;;4842958;29;20198;-77
2024/02/19 07:55:26;;;;;;;13.93;13.03;;;8.50;99.90;;;;;;4840743;29;20194;-76
2024/02/19 07:57:53;;;;;;;11.93;11.00;;;8.50;99.90;;;;;;4838178;29;20211;-77
2024/02/19 08:00:21;;;;;;;4.63;4.20;;;8.50;99.90;;;;;;4840937;29;20725;-77
2024/02/19 08:02:48;;;;;;;4.53;4.13;;;8.50;99.90;;;;;;4835558;29;20218;-77
2024/02/19 08:05:16;;;;;;;8.73;8.10;;;8.60;99.90;;;;;;4841579;29;20211;-77
2024/02/19 08:07:44;;;;;;;8.73;8.03;;;8.60;99.90;;;;;;4841784;29;20207;-77
2024/02/19 08:10:11;;;;;;;14.30;13.40;;;8.60;99.90;;;;;;4843439;29;20242;-78
2024/02/19 08:12:38;;;;;;;14.13;13.13;;;8.60;99.90;;;;;;4840441;29;20206;-77
2024/02/19 08:15:06;;;;;;;13.43;12.57;;;8.60;99.90;;;;;;4841323;29;20682;-77
2024/02/19 08:17:33;;;;;;;13.40;12.50;;;8.70;99.90;;;;;;4837289;29;20216;-77
2024/02/19 08:20:00;;;;;;;12.97;12.17;;;8.70;99.90;;;;;;4841177;29;20226;-77
2024/02/19 08:22:27;;;;;;;13.00;12.13;;;8.70;99.90;;;;;;4839507;29;20904;-77
2024/02/19 08:24:55;;;;;;;12.50;11.60;;;8.70;99.90;;;;;;4832966;29;20227;-77
2024/02/19 08:27:22;;;;;;;12.90;12.00;;;8.80;99.90;;;;;;4841101;29;20207;-77
2024/02/19 08:29:48;;;;;;;12.23;11.53;;;9.00;99.90;;;;;;4834885;29;20239;-77
2024/02/19 08:32:15;;;;;;;12.00;11.10;;;9.00;99.90;;;;;;4840449;29;20294;-78
2024/02/19 08:34:42;;;;;;;6.90;6.40;;;9.10;99.90;;;;;;4834361;29;20235;-77
2024/02/19 08:37:09;;;;;;;5.47;4.00;;;9.10;99.90;;;;;;4842313;29;20233;-77
2024/02/19 08:39:36;;;;;;;4.73;3.50;;;9.20;99.90;;;;;;4841949;29;20207;-77
2024/02/19 08:42:04;;;;;;;5.20;3.60;;;9.30;99.90;;;;;;4835523;29;20277;-77
2024/02/19 08:44:31;;;;;;;7.27;6.70;;;9.30;99.90;;;;;;4839844;29;20702;-78
2024/02/19 08:47:03;;;;;;;11.27;10.37;;;9.30;99.90;;;;;;4841281;29;20275;-78
2024/02/19 08:49:30;;;;;;;10.70;10.10;;;9.40;99.90;;;;;;4840398;29;20676;-78
2024/02/19 08:51:56;;;;;;;11.90;11.00;;;9.40;99.90;;;;;;4840758;29;20289;-79
2024/02/19 08:54:23;;;;;;;12.77;11.77;;;9.40;99.90;;;;;;4840986;29;20268;-78
2024/02/19 08:56:50;;;;;;;12.03;11.23;;;9.50;99.90;;;;;;4839866;29;20262;-77
2024/02/19 08:59:19;;;;;;;11.27;10.57;;;9.50;99.90;;;;;;4841082;29;20692;-78
2024/02/19 09:01:46;;;;;;;11.97;11.00;;;9.50;99.90;;;;;;4839823;29;20772;-77
2024/02/19 09:04:13;;;;;;;10.80;10.03;;;9.50;99.90;;;;;;4834872;29;20212;-78
2024/02/19 09:06:40;;;;;;;11.27;10.57;;;9.40;99.90;;;;;;4838337;29;20265;-78
2024/02/19 09:09:07;;;;;;;10.97;10.37;;;9.50;99.90;;;;;;4838761;29;20208;-78
2024/02/19 09:11:34;;;;;;;11.23;10.53;;;9.40;99.90;;;;;;4835528;29;20232;-78
2024/02/19 09:14:02;;;;;;;11.10;10.23;;;9.40;99.90;;;;;;4836469;29;20273;-78
2024/02/19 09:16:31;;;;;;;10.77;10.17;;;9.30;99.90;;;;;;4837747;29;20214;-78
2024/02/19 09:18:58;;;;;;;10.67;10.07;;;9.30;99.90;;;;;;4836332;29;20207;-78
2024/02/19 09:21:25;;;;;;;11.03;10.33;;;9.40;99.90;;;;;;4841319;29;20314;-78
2024/02/19 09:23:52;;;;;;;10.80;10.10;;;9.40;99.90;;;;;;4836219;29;20208;-78
2024/02/19 09:26:20;;;;;;;12.20;11.33;;;9.40;99.90;;;;;;4833731;29;20231;-78
2024/02/19 09:28:46;;;;;;;10.63;9.93;;;9.50;99.90;;;;;;4840055;29;20240;-78
2024/02/19 09:31:14;;;;;;;9.23;8.63;;;9.50;99.90;;;;;;4832734;29;20226;-78
2024/02/19 09:33:43;;;;;;;10.10;9.60;;;9.50;99.90;;;;;;4837184;29;20211;-78
2024/02/19 09:36:12;;;;;;;10.60;9.97;;;9.50;99.90;;;;;;4831954;29;20256;-78
2024/02/19 09:38:39;;;;;;;10.80;10.20;;;9.60;99.90;;;;;;4841470;29;20204;-78
2024/02/19 09:41:06;;;;;;;11.27;10.43;;;9.70;99.90;;;;;;4838635;29;20226;-78
2024/02/19 09:43:33;;;;;;;10.47;9.80;;;9.70;99.90;;;;;;4838973;29;20198;-79
2024/02/19 09:46:03;;;;;;;11.50;10.80;;;9.80;99.90;;;;;;4839757;29;20228;-77
2024/02/19 09:48:32;;;;;;;11.40;10.50;;;9.80;99.90;;;;;;4837572;29;20213;-77
2024/02/19 09:51:01;;;;;;;11.53;10.83;;;9.90;99.90;;;;;;4837646;29;20231;-77
2024/02/19 09:53:32;;;;;;;10.90;10.10;;;9.90;99.90;;;;;;4841129;29;20205;-77
2024/02/19 09:55:59;;;;;;;4.67;3.20;;;9.90;99.90;;;;;;4840002;29;20223;-77
2024/02/19 09:58:27;;;;;;;8.47;7.93;;;10.00;99.90;;;;;;4833986;29;20231;-77
2024/02/19 10:00:54;;;;;;;10.37;9.50;;;9.90;99.90;;;;;;4836566;29;20827;-77
2024/02/19 10:03:22;;;;;;;8.77;8.20;;;9.90;99.90;;;;;;4837140;29;20207;-77
2024/02/19 10:05:49;;;;;;;9.07;8.57;;;9.80;99.90;;;;;;4841195;29;20226;-78
2024/02/19 10:08:18;;;;;;;6.67;6.27;;;9.80;99.90;;;;;;4838576;29;20286;-77
2024/02/19 10:10:45;;;;;;;10.73;10.00;;;9.80;99.90;;;;;;4840816;29;20296;-78
2024/02/19 10:13:13;;;;;;;5.23;4.87;;;9.90;99.90;;;;;;4839004;29;20723;-77
2024/02/19 10:15:39;;;;;;;11.70;10.87;;;9.90;99.90;;;;;;4839910;29;20202;-78
2024/02/19 10:18:14;;;;;;;9.77;9.17;;;9.90;99.90;;;;;;4832619;29;20277;-77
2024/02/19 10:20:44;;;;;;;10.20;9.57;;;9.90;99.90;;;;;;4836401;29;20707;-77
2024/02/19 10:23:11;;;;;;;10.23;9.53;;;9.80;99.90;;;;;;4838629;29;20626;-77
2024/02/19 10:25:40;;;;;;;6.67;6.17;;;9.80;99.90;;;;;;4835533;29;20261;-77
2024/02/19 10:28:10;;;;;;;10.30;9.27;;;9.70;99.90;;;;;;4838080;29;20207;-78
2024/02/19 10:30:36;;;;;;;7.90;7.17;;;9.70;99.90;;;;;;4836483;29;20305;-78
2024/02/19 10:33:04;;;;;;;11.50;10.60;;;9.60;99.90;;;;;;4838154;29;20684;-77
2024/02/19 10:35:32;;;;;;;6.93;6.53;;;9.70;99.90;;;;;;4839853;29;20211;-77
2024/02/19 10:37:59;;;;;;;10.70;9.80;;;9.70;99.90;;;;;;4834195;29;20733;-78
2024/02/19 10:40:27;;;;;;;11.53;10.73;;;9.70;99.90;;;;;;4834161;29;20236;-77
2024/02/19 10:42:57;;;;;;;11.30;10.60;;;9.70;99.90;;;;;;4837475;29;20281;-78
2024/02/19 10:45:25;;;;;;;11.33;10.50;;;9.70;99.90;;;;;;4837186;29;20204;-78
2024/02/19 10:47:53;;;;;;;11.13;10.40;;;9.70;99.90;;;;;;4834881;29;20201;-78
2024/02/19 10:50:20;;;;;;;10.77;10.10;;;9.60;99.90;;;;;;4834511;29;20302;-78
2024/02/19 10:52:47;;;;;;;11.60;10.70;;;9.60;99.90;;;;;;4835892;29;20678;-79
2024/02/19 10:55:15;;;;;;;11.73;11.03;;;9.60;99.90;;;;;;4838690;29;20210;-78
2024/02/19 10:57:49;;;;;;;11.70;10.90;;;9.50;99.90;;;;;;4834674;29;20267;-78
2024/02/19 11:00:18;;;;;;;12.60;11.70;;;9.50;99.90;;;;;;4838766;29;20272;-78
2024/02/19 11:02:47;;;;;;;11.50;10.83;;;9.50;99.90;;;;;;4837445;29;20221;-79
2024/02/19 11:05:14;;;;;;;11.77;10.93;;;9.50;99.90;;;;;;4836839;29;20303;-78
2024/02/19 11:07:41;;;;;;;12.37;11.47;;;9.50;99.90;;;;;;4836056;29;20222;-78
2024/02/19 11:10:09;;;;;;;12.57;11.50;;;9.50;99.90;;;;;;4839876;29;20735;-79
2024/02/19 11:12:37;;;;;;;12.20;11.40;;;9.50;99.90;;;;;;4838175;29;20219;-78
2024/02/19 11:15:15;;;;;;;12.20;11.30;;;9.50;99.90;;;;;;4834783;29;20205;-78
2024/02/19 11:17:44;;;;;;;12.40;11.60;;;9.60;99.90;;;;;;4838352;29;20215;-78
2024/02/19 11:20:11;;;;;;;12.23;11.40;;;9.60;99.90;;;;;;4837954;29;20221;-78
2024/02/19 11:22:40;;;;;;;12.20;11.20;;;9.60;99.90;;;;;;4833309;29;20218;-78
2024/02/19 11:25:11;;;;;;;11.47;10.67;;;9.70;99.90;;;;;;4837938;29;20261;-77
2024/02/19 11:27:39;;;;;;;11.40;10.70;;;9.70;99.90;;;;;;4835932;29;20227;-79
2024/02/19 11:30:09;;;;;;;11.67;10.87;;;9.80;99.90;;;;;;4838599;29;20230;-78
2024/02/19 11:32:36;;;;;;;11.53;10.93;;;9.90;99.90;;;;;;4841317;29;20645;-78
2024/02/19 11:35:12;;;;;;;12.40;11.60;;;10.00;99.90;;;;;;4840081;29;20641;-78
2024/02/19 11:37:39;;;;;;;11.30;10.43;;;10.10;99.90;;;;;;4841054;29;20280;-77
2024/02/19 11:40:07;;;;;;;10.50;9.87;;;10.10;99.90;;;;;;4840991;29;20383;-78
2024/02/19 11:42:34;;;;;;;11.30;10.63;;;10.10;99.90;;;;;;4840727;29;20208;-77
2024/02/19 11:45:01;;;;;;;11.90;11.00;;;10.10;99.90;;;;;;4838853;29;20224;-77
2024/02/19 11:47:28;;;;;;;11.47;10.67;;;10.10;99.90;;;;;;4842691;29;20249;-77
2024/02/19 11:49:56;;;;;;;11.67;10.83;;;10.10;99.90;;;;;;4840591;29;20204;-77
2024/02/19 11:52:25;;;;;;;4.70;4.30;;;10.10;99.90;;;;;;4841183;29;20211;-77
2024/02/19 11:54:54;;;;;;;4.00;3.10;;;10.00;99.90;;;;;;4841998;29;20204;-77
2024/02/19 11:57:22;;;;;;;7.57;7.07;;;10.00;99.90;;;;;;4839426;29;20672;-76
2024/02/19 11:59:49;;;;;;;8.37;7.77;;;10.00;99.90;;;;;;4839658;29;20200;-79
2024/02/19 12:02:18;;;;;;;5.90;5.07;;;10.10;99.90;;;;;;4843616;29;20221;-82
2024/02/19 12:04:50;;;;;;;8.47;7.97;;;10.20;99.90;;;;;;4854537;29;20208;-82
2024/02/19 12:07:17;;;;;;;3.47;3.27;;;10.40;99.90;;;;;;4861484;29;20246;-81
2024/02/19 12:09:46;;;;;;;3.70;2.97;;;10.60;99.90;;;;;;4848736;29;20210;-83
2024/02/19 12:12:17;;;;;;;5.80;5.40;;;10.70;99.90;;;;;;4839286;29;20201;-82
2024/02/19 12:14:44;;;;;;;3.50;3.13;;;10.90;99.90;;;;;;4838011;29;20280;-82
2024/02/19 12:17:11;;;;;;;3.40;3.20;;;11.00;99.90;;;;;;4838873;29;20199;-82
2024/02/19 12:19:37;;;;;;;8.40;7.80;;;11.00;99.90;;;;;;4833600;29;20203;-84
2024/02/19 12:22:06;;;;;;;4.87;4.47;;;10.90;99.90;;;;;;4839287;29;20205;-81
2024/02/19 12:24:33;;;;;;;10.23;9.53;;;10.80;99.90;;;;;;4837287;29;20210;-82
2024/02/19 12:27:01;;;;;;;3.80;3.13;;;10.70;99.90;;;;;;4832454;29;20623;-82
2024/02/19 12:29:28;;;;;;;10.37;9.67;;;10.60;99.90;;;;;;4840778;29;20210;-82
2024/02/19 12:31:54;;;;;;;7.67;6.97;;;10.60;99.90;;;;;;4837217;29;20296;-82
2024/02/19 12:34:22;;;;;;;11.23;10.53;;;10.50;99.90;;;;;;4841621;29;20260;-82
2024/02/19 12:36:48;;;;;;;10.13;9.37;;;10.40;99.90;;;;;;4838706;29;20202;-81
2024/02/19 12:39:17;;;;;;;10.67;9.97;;;10.40;99.90;;;;;;4840575;29;20201;-82
2024/02/19 12:41:46;;;;;;;11.00;10.30;;;10.40;99.90;;;;;;4839631;29;20228;-82
2024/02/19 12:44:15;;;;;;;10.50;9.70;;;10.50;99.90;;;;;;4839284;29;20237;-83